Time;durP1;ratioP1;P1;durP2;ratioP2;P2;SDS_P1;SDS_P2;PMS_P1;PMS_P2;Temp;Humidity;BMP_temperature;BMP_pressure;BME280_temperature;BME280_humidity;BME280_pressure;Samples;Min_cycle;Max_cycle;Signal;HPM_P1;HPM_P2
2022/03/23 00:02:10;;;;;;;43.10;23.45;;;;;;;8.92;67.63;103140.13;5025070;28;20073;-61
2022/03/23 00:04:35;;;;;;;49.10;23.02;;;;;;;8.88;67.78;103139.22;5026298;28;20032;-60
2022/03/23 00:07:00;;;;;;;47.15;22.90;;;;;;;8.87;67.43;103137.47;5024861;28;20032;-60
2022/03/23 00:09:26;;;;;;;46.05;21.98;;;;;;;8.89;67.32;103134.84;5024147;28;20057;-61
2022/03/23 00:11:52;;;;;;;45.35;22.23;;;;;;;8.83;67.51;103136.56;5025283;28;20047;-59
2022/03/23 00:14:18;;;;;;;42.40;21.38;;;;;;;8.70;68.45;103138.16;5026051;28;20087;-62
2022/03/23 00:16:44;;;;;;;39.90;21.75;;;;;;;8.66;68.25;103138.09;5025135;28;20100;-61
2022/03/23 00:19:09;;;;;;;45.25;23.10;;;;;;;8.60;68.54;103136.28;5025929;28;20108;-60
2022/03/23 00:21:35;;;;;;;44.78;23.08;;;;;;;8.56;68.58;103135.38;5025595;28;20026;-61
2022/03/23 00:24:00;;;;;;;40.95;22.00;;;;;;;8.51;68.60;103137.03;5024356;28;20379;-59
2022/03/23 00:26:26;;;;;;;44.25;22.52;;;;;;;8.48;69.02;103137.00;5008277;28;20120;-62
2022/03/23 00:28:51;;;;;;;42.60;23.20;;;;;;;8.39;69.20;103139.50;5025400;28;20120;-62
2022/03/23 00:31:18;;;;;;;42.22;22.70;;;;;;;8.36;69.11;103135.09;5024043;28;20037;-60
2022/03/23 00:33:44;;;;;;;38.75;23.25;;;;;;;8.37;69.27;103138.63;5025967;28;20033;-61
2022/03/23 00:36:10;;;;;;;46.83;23.13;;;;;;;8.42;69.08;103135.19;5024670;28;20365;-59
2022/03/23 00:38:35;;;;;;;47.15;23.38;;;;;;;8.41;69.46;103135.16;5025373;28;20458;-59
2022/03/23 00:41:01;;;;;;;41.83;22.80;;;;;;;8.38;69.64;103133.38;5024623;28;20031;-59
2022/03/23 00:43:26;;;;;;;34.47;20.98;;;;;;;8.32;69.69;103128.94;5025150;28;20088;-59
2022/03/23 00:45:51;;;;;;;44.75;23.25;;;;;;;8.33;69.98;103135.06;5024916;28;20472;-60
2022/03/23 00:48:17;;;;;;;50.03;23.95;;;;;;;8.34;69.94;103135.09;5007068;28;20113;-60
2022/03/23 00:50:42;;;;;;;44.15;23.48;;;;;;;8.36;69.89;103132.47;5025649;28;20067;-59
2022/03/23 00:53:08;;;;;;;40.10;22.05;;;;;;;8.31;70.06;103131.56;5024293;28;20079;-64
2022/03/23 00:55:33;;;;;;;43.15;24.52;;;;;;;8.33;69.97;103138.59;5032286;28;20033;-60
2022/03/23 00:57:59;;;;;;;43.55;24.80;;;;;;;8.30;70.17;103135.00;5030844;28;20025;-60
2022/03/23 01:00:24;;;;;;;48.25;24.55;;;;;;;8.29;69.97;103136.78;5031852;28;20403;-60
2022/03/23 01:02:50;;;;;;;43.88;22.45;;;;;;;8.25;70.43;103132.31;5031068;28;20057;-60
2022/03/23 01:05:16;;;;;;;42.40;22.58;;;;;;;8.21;70.24;103131.44;5032378;28;20075;-61
2022/03/23 01:07:42;;;;;;;47.00;24.27;;;;;;;8.18;70.27;103130.50;5030113;28;20060;-60
2022/03/23 01:10:13;;;;;;;42.38;23.60;;;;;;;8.17;70.64;103131.34;5032097;28;20269;-63
2022/03/23 01:12:39;;;;;;;45.47;23.52;;;;;;;8.18;70.59;103126.13;5031488;28;20049;-61
2022/03/23 01:15:06;;;;;;;44.28;23.42;;;;;;;8.13;70.68;103129.56;5031341;28;20013;-59
2022/03/23 01:17:32;;;;;;;43.05;23.27;;;;;;;8.03;70.99;103126.81;5032587;28;20103;-61
2022/03/23 01:19:58;;;;;;;47.78;25.70;;;;;;;7.97;71.23;103124.09;5031404;28;20063;-60
2022/03/23 01:22:23;;;;;;;45.35;25.75;;;;;;;7.92;71.91;103125.78;5031334;28;20033;-62
2022/03/23 01:24:48;;;;;;;45.63;25.55;;;;;;;7.90;71.78;103122.25;5020052;28;20476;-59
2022/03/23 01:27:14;;;;;;;43.95;24.95;;;;;;;7.82;72.23;103116.88;5051990;28;20021;-61
2022/03/23 01:29:39;;;;;;;45.58;24.58;;;;;;;7.76;72.29;103112.44;5050661;28;20427;-59
2022/03/23 01:32:05;;;;;;;42.45;24.33;;;;;;;7.69;72.66;103121.06;5052263;28;20053;-61
2022/03/23 01:34:30;;;;;;;45.30;25.05;;;;;;;7.70;72.78;103115.84;5037791;28;20076;-61
2022/03/23 01:36:55;;;;;;;45.28;24.10;;;;;;;7.62;73.58;103113.97;5031835;28;20111;-62
2022/03/23 01:39:21;;;;;;;40.45;22.50;;;;;;;7.58;73.70;103119.16;5030115;28;20025;-61
2022/03/23 01:41:46;;;;;;;43.60;23.55;;;;;;;7.56;73.73;103114.75;5031754;28;20040;-60
2022/03/23 01:44:20;;;;;;;50.03;23.67;;;;;;;7.50;73.81;103114.66;5030520;28;20491;-61
2022/03/23 01:47:07;;;;;;;45.03;23.92;;;;;;;7.41;74.30;103115.41;5031329;28;20528;-59
2022/03/23 01:49:40;;;;;;;47.50;26.45;;;;;;;7.40;74.62;103117.13;5031778;28;20587;-61
2022/03/23 01:52:08;;;;;;;51.20;23.70;;;;;;;7.34;74.79;103114.41;5012889;28;20135;-60
2022/03/23 01:54:34;;;;;;;48.08;24.58;;;;;;;7.39;74.35;103111.84;5013870;28;20041;-60
2022/03/23 01:57:00;;;;;;;44.67;24.38;;;;;;;7.40;74.36;103118.84;5037536;28;20426;-61
2022/03/23 01:59:26;;;;;;;47.67;25.42;;;;;;;7.39;74.47;103109.22;5033622;28;20036;-60
2022/03/23 02:01:53;;;;;;;43.40;25.33;;;;;;;7.36;74.47;103110.06;5050364;28;20048;-59
2022/03/23 02:04:19;;;;;;;50.70;24.58;;;;;;;7.40;74.30;103118.84;5033747;28;20136;-60
2022/03/23 02:06:45;;;;;;;43.75;25.60;;;;;;;7.43;74.02;103108.41;5041979;22;20133;-61
2022/03/23 02:09:10;;;;;;;45.72;25.45;;;;;;;7.43;73.99;103104.06;5028054;28;20128;-61
2022/03/23 02:11:37;;;;;;;44.15;25.23;;;;;;;7.34;74.19;103109.16;5028402;28;20494;-60
2022/03/23 02:14:02;;;;;;;49.35;25.65;;;;;;;7.25;74.82;103109.03;5028288;28;20052;-61
2022/03/23 02:16:28;;;;;;;45.45;24.85;;;;;;;7.22;75.03;103111.59;5028589;28;20067;-62
2022/03/23 02:18:53;;;;;;;45.75;25.67;;;;;;;7.19;74.99;103107.16;5027632;28;20049;-61
2022/03/23 02:21:18;;;;;;;48.28;25.52;;;;;;;7.25;75.02;103106.41;5026899;28;20037;-61
2022/03/23 02:23:44;;;;;;;46.67;23.35;;;;;;;7.19;74.77;103104.53;5028125;28;20033;-61
2022/03/23 02:26:09;;;;;;;47.92;23.38;;;;;;;7.19;74.57;103104.53;5027808;28;20028;-61
2022/03/23 02:28:39;;;;;;;48.25;27.35;;;;;;;7.23;74.66;103106.38;5027521;28;20029;-60
2022/03/23 02:31:05;;;;;;;43.83;25.30;;;;;;;7.18;74.91;103105.41;5026525;28;20466;-61
2022/03/23 02:33:30;;;;;;;43.97;23.70;;;;;;;7.12;75.04;103100.94;5027919;28;20033;-62
2022/03/23 02:35:55;;;;;;;50.58;26.17;;;;;;;7.17;75.11;103101.03;5025513;28;20722;-61
2022/03/23 02:38:21;;;;;;;45.65;26.77;;;;;;;7.15;75.13;103103.63;5026969;28;20029;-60
2022/03/23 02:40:47;;;;;;;54.92;26.90;;;;;;;7.07;75.17;103105.22;5026639;28;20464;-61
2022/03/23 02:43:13;;;;;;;43.72;22.63;;;;;;;6.98;75.38;103105.94;5027877;28;20067;-61
2022/03/23 02:45:38;;;;;;;41.10;22.45;;;;;;;6.93;75.62;103107.59;5027019;28;20472;-63
2022/03/23 02:48:05;;;;;;;37.70;22.15;;;;;;;6.89;75.60;103104.03;5027167;28;20036;-61
2022/03/23 02:50:30;;;;;;;45.83;25.50;;;;;;;6.90;75.71;103108.44;5027753;28;20029;-61
2022/03/23 03:01:54;;;;;;;42.83;23.85;;;;;;;6.82;75.42;103104.78;5027559;28;20140;-61
2022/03/23 03:04:21;;;;;;;45.78;25.65;;;;;;;6.85;75.61;103104.84;5027055;28;20400;-61
2022/03/23 03:06:47;;;;;;;40.72;22.90;;;;;;;6.82;75.56;103105.69;5026351;28;20050;-61
2022/03/23 03:09:13;;;;;;;40.17;21.65;;;;;;;6.78;75.39;103103.84;5025874;28;20030;-61
2022/03/23 03:11:38;;;;;;;44.20;24.42;;;;;;;6.76;75.54;103105.56;5026908;28;20045;-62
2022/03/23 03:14:04;;;;;;;38.65;21.95;;;;;;;6.72;75.85;103106.34;5026750;28;20211;-61
2022/03/23 03:16:29;;;;;;;50.45;24.80;;;;;;;6.67;75.66;103116.75;5026462;28;20476;-59
2022/03/23 03:18:54;;;;;;;43.00;23.30;;;;;;;6.62;75.87;103113.13;5026608;28;20582;-61
2022/03/23 03:21:20;;;;;;;43.85;22.17;;;;;;;6.59;75.86;103113.06;5027092;28;20025;-60
2022/03/23 03:23:46;;;;;;;34.70;20.27;;;;;;;6.55;75.90;103117.38;5025554;28;20392;-61
2022/03/23 03:26:14;;;;;;;41.10;21.52;;;;;;;6.52;75.75;103119.06;5026800;28;20036;-60
2022/03/23 03:28:40;;;;;;;35.05;20.42;;;;;;;6.46;76.13;103117.19;5026632;28;20392;-60
2022/03/23 03:31:07;;;;;;;38.45;20.80;;;;;;;6.41;76.24;103119.72;5026587;28;20037;-61
2022/03/23 03:33:33;;;;;;;40.35;21.80;;;;;;;6.34;76.66;103122.19;5027524;28;20387;-62
2022/03/23 03:35:59;;;;;;;45.65;26.77;;;;;;;6.32;76.96;103114.28;5026078;28;20025;-61
2022/03/23 03:38:26;;;;;;;43.20;24.23;;;;;;;6.29;77.17;103124.72;5024895;28;20030;-63
2022/03/23 03:40:51;;;;;;;39.70;21.88;;;;;;;6.24;77.36;103116.78;5027026;28;20028;-60
2022/03/23 03:43:16;;;;;;;43.90;26.13;;;;;;;6.25;77.63;103121.16;5023732;28;20411;-60
2022/03/23 03:45:43;;;;;;;45.90;25.13;;;;;;;6.24;77.67;103119.38;5026720;28;20403;-61
2022/03/23 03:48:08;;;;;;;51.17;27.25;;;;;;;6.30;77.46;103119.50;5024716;28;20037;-62
2022/03/23 03:50:34;;;;;;;49.72;27.10;;;;;;;6.38;76.93;103118.78;5026825;28;20025;-59
2022/03/23 03:53:00;;;;;;;49.78;25.88;;;;;;;6.46;76.61;103122.44;5025988;28;20036;-61
2022/03/23 03:55:25;;;;;;;52.95;28.02;;;;;;;6.50;76.77;103119.03;5025537;28;20053;-61
2022/03/23 03:57:51;;;;;;;48.40;27.27;;;;;;;6.50;76.52;103121.63;5026729;28;20018;-61
2022/03/23 04:00:17;;;;;;;46.30;26.50;;;;;;;6.56;76.38;103119.16;5025425;28;20025;-61
2022/03/23 04:02:42;;;;;;;50.30;26.20;;;;;;;6.54;76.25;103118.22;5025382;28;20131;-63
2022/03/23 04:05:08;;;;;;;49.22;26.65;;;;;;;6.55;76.31;103120.00;5026894;28;20025;-61
2022/03/23 04:07:33;;;;;;;51.40;26.52;;;;;;;6.54;76.17;103114.75;5025032;28;20107;-61
2022/03/23 04:10:03;;;;;;;44.63;25.00;;;;;;;6.43;76.55;103118.03;5025387;28;20035;-61
2022/03/23 04:12:28;;;;;;;;;;;;;;;6.37;76.87;103123.13;5026660;28;20033;-61
2022/03/23 04:14:53;;;;;;;44.65;25.25;;;;;;;6.34;77.22;103127.41;5025955;28;19920;-61
2022/03/23 04:17:19;;;;;;;45.60;26.45;;;;;;;6.29;77.23;103130.81;5026528;28;20049;-62
2022/03/23 04:19:44;;;;;;;47.90;25.13;;;;;;;6.27;77.49;103121.19;5025268;28;20045;-60
2022/03/23 04:22:09;;;;;;;50.67;27.85;;;;;;;6.28;77.36;103117.69;5025010;28;20038;-62
2022/03/23 04:24:35;;;;;;;50.85;25.63;;;;;;;6.34;76.97;103127.41;5026202;28;20036;-60
2022/03/23 04:27:00;;;;;;;53.47;26.95;;;;;;;6.35;76.85;103123.97;5024668;28;20057;-62
2022/03/23 04:29:26;;;;;;;52.47;26.23;;;;;;;6.28;77.04;103129.06;5006964;28;20609;-61
2022/03/23 04:31:52;;;;;;;58.80;27.75;;;;;;;6.28;77.19;103126.44;5005584;28;20030;-61
2022/03/23 04:34:17;;;;;;;46.83;26.42;;;;;;;6.27;77.34;103135.16;5010103;28;20040;-60
2022/03/23 04:36:42;;;;;;;49.20;26.13;;;;;;;6.28;77.03;103134.31;5025611;28;20028;-62
2022/03/23 04:39:08;;;;;;;50.25;26.55;;;;;;;6.26;77.18;103138.63;5024963;28;20029;-61
2022/03/23 04:41:33;;;;;;;46.13;26.00;;;;;;;6.25;77.21;103138.59;5022225;28;20121;-61
2022/03/23 04:43:58;;;;;;;53.47;26.52;;;;;;;6.24;77.10;103131.59;5026011;28;20064;-61
2022/03/23 04:46:24;;;;;;;60.63;27.95;;;;;;;6.24;77.06;103128.97;5025776;28;20033;-60
2022/03/23 04:48:49;;;;;;;52.33;28.02;;;;;;;6.22;76.82;103131.56;5024738;28;20491;-64
2022/03/23 04:51:14;;;;;;;53.28;26.70;;;;;;;6.20;77.15;103141.09;5025734;28;20151;-61
2022/03/23 04:53:40;;;;;;;49.33;24.13;;;;;;;6.14;77.19;103138.38;5025375;28;20027;-61
2022/03/23 04:56:05;;;;;;;53.38;26.50;;;;;;;6.08;77.33;103139.09;5025614;28;20080;-61
2022/03/23 04:58:30;;;;;;;50.65;27.05;;;;;;;6.04;77.24;103139.88;5025662;28;20464;-61
2022/03/23 05:00:56;;;;;;;50.83;25.92;;;;;;;6.01;77.52;103130.19;5025950;28;20040;-62
2022/03/23 05:03:21;;;;;;;54.47;25.90;;;;;;;6.04;77.34;103140.78;5025259;28;20399;-62
2022/03/23 05:05:47;;;;;;;48.15;27.35;;;;;;;6.03;77.49;103138.97;5025671;28;20030;-62
2022/03/23 05:08:13;;;;;;;49.88;27.27;;;;;;;6.03;77.47;103148.56;5024950;28;20384;-61
2022/03/23 05:10:39;;;;;;;48.35;26.20;;;;;;;6.01;77.41;103145.91;5025237;28;20026;-61
2022/03/23 05:13:04;;;;;;;47.10;26.05;;;;;;;6.04;77.48;103156.47;5026045;28;20048;-60
2022/03/23 05:15:29;;;;;;;47.45;24.98;;;;;;;5.96;77.23;103155.38;5025473;28;20514;-60
2022/03/23 05:17:56;;;;;;;47.78;23.83;;;;;;;5.88;77.66;103155.22;5025451;28;20033;-63
2022/03/23 05:20:23;;;;;;;44.50;24.50;;;;;;;5.96;77.88;103149.28;5025384;28;20507;-60
2022/03/23 05:22:48;;;;;;;46.65;25.48;;;;;;;6.00;77.50;103154.63;5024997;28;20109;-61
2022/03/23 05:25:14;;;;;;;53.85;27.27;;;;;;;5.97;77.65;103165.00;5024997;28;20181;-61
2022/03/23 05:27:40;;;;;;;46.08;23.70;;;;;;;5.93;77.78;103157.94;5025606;28;20476;-62
2022/03/23 05:30:08;;;;;;;45.50;21.83;;;;;;;5.82;77.82;103150.69;5025929;28;20029;-62
2022/03/23 05:32:34;;;;;;;54.80;27.45;;;;;;;5.85;77.64;103152.53;5025608;28;20041;-62
2022/03/23 05:34:59;;;;;;;49.45;26.50;;;;;;;5.86;77.83;103161.25;5025355;28;20029;-62
2022/03/23 05:37:25;;;;;;;47.10;25.55;;;;;;;5.83;78.00;103162.06;5024504;28;20026;-61
2022/03/23 05:39:51;;;;;;;47.47;24.58;;;;;;;5.78;77.96;103161.94;5024922;28;20030;-61
2022/03/23 05:42:16;;;;;;;44.58;23.48;;;;;;;5.78;78.22;103159.34;5028464;28;20496;-61
2022/03/23 05:44:41;;;;;;;51.83;26.30;;;;;;;5.80;77.94;103155.03;5028979;28;20108;-61
2022/03/23 05:47:07;;;;;;;53.45;26.40;;;;;;;5.88;77.71;103164.78;5028457;28;20017;-64
2022/03/23 05:49:33;;;;;;;46.45;25.98;;;;;;;5.91;77.46;103159.63;5029219;28;20052;-60
2022/03/23 05:51:58;;;;;;;44.67;25.20;;;;;;;5.92;77.79;103162.28;5028361;28;20547;-61
2022/03/23 05:54:24;;;;;;;52.00;26.08;;;;;;;5.92;77.78;103161.38;5028662;28;20038;-60
2022/03/23 05:56:50;;;;;;;49.70;25.88;;;;;;;5.93;77.63;103163.19;5028224;28;20105;-60
2022/03/23 05:59:16;;;;;;;43.65;24.33;;;;;;;5.90;77.47;103165.72;5027086;28;20036;-61
2022/03/23 06:01:41;;;;;;;46.00;25.98;;;;;;;5.96;77.81;103163.22;5025275;28;20073;-61
2022/03/23 06:04:08;;;;;;;53.95;26.15;;;;;;;5.96;77.90;103172.81;5025585;28;20036;-60
2022/03/23 06:06:33;;;;;;;54.13;27.08;;;;;;;5.97;77.70;103164.13;5025159;28;20054;-61
2022/03/23 06:08:59;;;;;;;46.75;25.52;;;;;;;6.04;77.45;103164.34;5022697;28;20241;-62
2022/03/23 06:11:24;;;;;;;48.92;26.38;;;;;;;5.98;77.54;103174.63;5025426;28;20117;-60
2022/03/23 06:13:50;;;;;;;51.67;25.73;;;;;;;6.03;77.57;103169.50;5027448;28;20017;-58
2022/03/23 06:16:15;;;;;;;60.47;26.65;;;;;;;6.07;77.17;103164.41;5019696;28;20030;-56
2022/03/23 06:18:41;;;;;;;50.58;27.08;;;;;;;6.17;76.92;103172.47;5016569;28;20482;-60
2022/03/23 06:21:06;;;;;;;51.00;25.48;;;;;;;6.29;76.30;103174.47;5017684;28;20057;-54
2022/03/23 06:23:32;;;;;;;46.17;24.75;;;;;;;6.38;76.12;103179.03;5016675;28;20296;-58
2022/03/23 06:25:57;;;;;;;38.40;22.80;;;;;;;6.42;75.93;103178.22;5019454;28;20383;-62
2022/03/23 06:28:23;;;;;;;47.28;24.17;;;;;;;6.47;75.62;103181.81;5017374;28;20026;-59
2022/03/23 06:30:50;;;;;;;44.83;24.88;;;;;;;6.48;75.52;103186.22;5017471;28;20022;-59
2022/03/23 06:33:16;;;;;;;44.72;22.15;;;;;;;6.46;75.73;103177.44;5019250;28;20037;-59
2022/03/23 06:35:42;;;;;;;53.80;24.65;;;;;;;6.52;75.53;103176.69;5017076;28;20026;-60
2022/03/23 06:38:07;;;;;;;48.80;24.27;;;;;;;6.51;75.66;103178.44;5006675;28;20026;-63
2022/03/23 06:40:34;;;;;;;44.13;25.15;;;;;;;6.59;75.61;103178.56;5013222;28;20168;-59
2022/03/23 06:42:59;;;;;;;46.67;24.20;;;;;;;6.61;75.47;103178.59;5022762;28;20159;-58
2022/03/23 06:45:25;;;;;;;47.30;24.63;;;;;;;6.64;75.55;103182.19;5019471;28;20471;-59
2022/03/23 06:47:50;;;;;;;45.25;24.35;;;;;;;6.67;75.26;103183.97;5023338;28;20033;-59
2022/03/23 06:50:16;;;;;;;48.83;25.08;;;;;;;6.73;75.08;103181.47;5012653;28;20484;-61
2022/03/23 06:52:41;;;;;;;43.70;22.85;;;;;;;6.80;74.78;103177.22;5025015;28;20025;-62
2022/03/23 06:55:07;;;;;;;44.53;24.05;;;;;;;6.88;74.25;103177.38;5025964;28;20021;-61
2022/03/23 06:57:33;;;;;;;45.25;23.17;;;;;;;7.01;74.08;103187.25;5025236;28;20388;-59
2022/03/23 06:59:58;;;;;;;41.78;22.90;;;;;;;7.10;73.79;103189.16;5026767;28;20033;-56
2022/03/23 07:02:24;;;;;;;51.72;26.52;;;;;;;7.20;73.30;103190.25;5023945;28;20022;-57
2022/03/23 07:04:49;;;;;;;44.70;24.48;;;;;;;7.32;72.42;103190.44;5025866;28;20107;-62
2022/03/23 07:07:15;;;;;;;46.92;23.45;;;;;;;7.33;72.10;103192.22;5025841;28;20104;-60
2022/03/23 07:09:41;;;;;;;50.53;25.83;;;;;;;7.43;71.70;103192.38;5025739;28;20033;-62
2022/03/23 07:12:10;;;;;;;39.03;23.17;;;;;;;7.53;71.34;103193.41;5025710;28;20033;-65
2022/03/23 07:14:37;;;;;;;44.72;22.75;;;;;;;7.62;70.63;103195.31;5026568;28;20033;-60
2022/03/23 07:17:04;;;;;;;40.88;23.42;;;;;;;7.75;70.14;103197.28;5024206;28;20029;-60
2022/03/23 07:19:30;;;;;;;41.38;21.58;;;;;;;7.88;69.31;103200.06;5016963;28;20026;-62
2022/03/23 07:21:56;;;;;;;41.75;21.30;;;;;;;7.93;69.21;103195.78;5014364;28;20030;-60
2022/03/23 07:24:22;;;;;;;42.95;22.52;;;;;;;8.00;69.26;103205.53;5017618;28;20026;-57
2022/03/23 07:26:48;;;;;;;38.63;21.58;;;;;;;8.03;69.32;103210.81;5026286;28;20025;-57
2022/03/23 07:29:15;;;;;;;37.30;20.60;;;;;;;8.09;69.19;103208.31;5025539;28;20028;-57
2022/03/23 07:31:41;;;;;;;41.60;24.17;;;;;;;8.16;68.84;103216.28;5025350;28;20094;-61
2022/03/23 07:34:06;;;;;;;39.53;20.33;;;;;;;8.22;68.46;103214.59;5026471;28;20117;-61
2022/03/23 07:36:31;;;;;;;38.05;23.08;;;;;;;8.30;68.33;103214.72;5014662;28;20069;-58
2022/03/23 07:38:57;;;;;;;42.58;23.73;;;;;;;8.34;68.48;103211.25;5013147;28;20068;-59
2022/03/23 07:41:22;;;;;;;40.47;22.48;;;;;;;8.49;68.10;103209.69;5022668;28;20064;-56
2022/03/23 07:43:49;;;;;;;45.08;23.50;;;;;;;8.53;68.01;103214.16;5027099;28;20045;-59
2022/03/23 07:46:14;;;;;;;43.75;22.83;;;;;;;8.57;68.26;103223.88;5024162;28;20026;-61
2022/03/23 07:48:39;;;;;;;39.33;20.33;;;;;;;8.67;67.88;103221.38;5025528;28;20033;-67
2022/03/23 07:51:05;;;;;;;44.00;23.35;;;;;;;8.77;67.73;103220.63;5026062;28;20029;-61
2022/03/23 07:53:30;;;;;;;44.05;23.85;;;;;;;8.80;67.56;103225.91;5025944;28;20169;-61
2022/03/23 07:55:55;;;;;;;39.20;21.92;;;;;;;8.90;67.13;103226.00;5016561;28;20234;-61
2022/03/23 07:58:22;;;;;;;42.17;22.92;;;;;;;8.98;65.78;103229.63;5015027;28;20021;-58
2022/03/23 08:00:47;;;;;;;42.33;22.20;;;;;;;9.04;65.65;103229.69;5013581;28;20068;-64
2022/03/23 08:03:13;;;;;;;37.45;20.95;;;;;;;9.18;65.50;103236.84;5014777;28;20049;-65
2022/03/23 08:05:39;;;;;;;34.53;17.75;;;;;;;9.27;65.60;103236.06;5015955;28;20463;-66
2022/03/23 08:08:06;;;;;;;37.05;17.85;;;;;;;9.38;65.44;103233.50;5016150;28;20080;-64
2022/03/23 08:10:31;;;;;;;40.83;22.48;;;;;;;9.45;65.06;103238.84;5014228;28;20411;-63
2022/03/23 08:12:56;;;;;;;37.83;19.98;;;;;;;9.54;64.93;103235.44;5017861;28;20025;-69
2022/03/23 08:15:24;;;;;;;39.95;22.70;;;;;;;9.63;64.29;103239.03;5017018;28;20037;-66
2022/03/23 08:17:49;;;;;;;33.47;20.58;;;;;;;9.70;64.40;103246.09;5015702;28;20300;-62
2022/03/23 08:20:33;;;;;;;31.40;17.52;;;;;;;9.78;64.26;103239.13;5025030;28;20041;-62
2022/03/23 08:23:03;;;;;;;37.22;19.23;;;;;;;9.95;63.27;103238.38;5022687;28;20542;-65
2022/03/23 08:25:29;;;;;;;38.88;22.25;;;;;;;10.05;61.96;103236.72;5013857;28;20042;-66
2022/03/23 08:27:55;;;;;;;40.83;21.52;;;;;;;9.96;58.58;103227.88;5017034;28;20533;-68
2022/03/23 08:30:21;;;;;;;38.33;22.02;;;;;;;10.10;58.58;103235.88;5015859;28;20070;-66
2022/03/23 08:32:46;;;;;;;35.75;19.55;;;;;;;10.28;58.24;103233.34;5016817;28;20391;-65
2022/03/23 08:35:12;;;;;;;30.90;18.38;;;;;;;10.42;57.89;103233.41;5020873;28;20076;-62
2022/03/23 08:37:38;;;;;;;32.70;17.35;;;;;;;10.53;57.58;103234.38;5013788;28;20025;-63
2022/03/23 08:40:04;;;;;;;39.08;18.85;;;;;;;10.66;57.40;103235.34;5011530;28;20014;-62
2022/03/23 08:42:30;;;;;;;35.50;20.25;;;;;;;10.67;57.85;103225.66;4997591;28;20044;-63
2022/03/23 08:44:55;;;;;;;38.78;22.17;;;;;;;10.67;58.00;103229.19;5024580;28;20025;-62
2022/03/23 08:47:20;;;;;;;33.67;19.10;;;;;;;10.77;57.42;103227.44;5021920;28;20111;-63
2022/03/23 08:49:46;;;;;;;34.53;19.08;;;;;;;10.87;55.99;103234.50;5014192;28;20124;-61
2022/03/23 08:52:11;;;;;;;36.80;20.35;;;;;;;10.89;55.44;103239.78;5002010;28;20022;-62
2022/03/23 08:54:36;;;;;;;35.25;19.92;;;;;;;11.04;54.64;103225.78;5003665;28;20076;-64
2022/03/23 08:57:02;;;;;;;40.38;20.83;;;;;;;11.18;54.68;103235.47;5004353;28;20076;-62
2022/03/23 08:59:27;;;;;;;35.72;19.50;;;;;;;11.26;54.18;103236.38;4995698;28;20041;-63
2022/03/23 09:01:52;;;;;;;37.63;20.10;;;;;;;11.24;54.82;103233.75;4999906;28;20036;-63
2022/03/23 09:04:18;;;;;;;35.30;19.35;;;;;;;11.23;54.57;103233.75;5004214;28;20025;-62
2022/03/23 09:06:43;;;;;;;32.17;20.23;;;;;;;11.31;54.78;103231.97;4999459;28;20033;-63
2022/03/23 09:09:09;;;;;;;39.70;21.65;;;;;;;11.41;55.24;103237.28;5003452;28;20040;-63
2022/03/23 09:11:34;;;;;;;31.45;19.05;;;;;;;11.61;53.94;103232.91;5001911;28;20014;-63
2022/03/23 09:14:00;;;;;;;39.47;22.27;;;;;;;11.55;53.42;103237.28;5002779;28;20033;-62
2022/03/23 09:16:26;;;;;;;41.92;21.50;;;;;;;11.43;53.45;103248.72;5008252;28;20633;-63
2022/03/23 09:18:51;;;;;;;41.13;23.02;;;;;;;11.45;53.09;103244.31;5008478;28;20498;-62
2022/03/23 09:21:17;;;;;;;31.65;19.33;;;;;;;11.66;53.27;103245.22;5006664;28;20051;-62
2022/03/23 09:23:43;;;;;;;38.85;20.25;;;;;;;11.82;53.97;103239.03;5008228;28;20031;-63
2022/03/23 09:26:10;;;;;;;37.63;20.27;;;;;;;11.93;53.87;103248.72;5007496;28;20018;-62
2022/03/23 09:28:35;;;;;;;37.28;21.17;;;;;;;11.91;52.59;103248.72;5009554;28;20021;-63
2022/03/23 09:31:00;;;;;;;33.92;18.55;;;;;;;12.10;52.45;103251.41;5003427;28;20045;-63
2022/03/23 09:33:27;;;;;;;35.13;20.17;;;;;;;12.23;51.82;103241.66;5008548;28;20056;-63
2022/03/23 09:35:53;;;;;;;41.40;21.45;;;;;;;12.18;51.80;103240.78;5006349;28;20025;-62
2022/03/23 09:38:18;;;;;;;44.67;22.10;;;;;;;11.99;51.49;103241.69;5007267;28;20135;-62
2022/03/23 09:40:46;;;;;;;40.38;22.13;;;;;;;12.12;51.33;103236.41;5007398;28;20124;-62
2022/03/23 09:43:11;;;;;;;39.33;21.90;;;;;;;12.08;51.75;103245.22;5007688;28;20515;-63
2022/03/23 09:45:46;;;;;;;34.97;20.30;;;;;;;12.31;51.75;103242.50;5008089;28;20108;-62
2022/03/23 09:48:14;;;;;;;39.53;20.98;;;;;;;12.58;52.21;103242.47;5008147;28;20332;-63
2022/03/23 09:50:47;;;;;;;38.78;21.42;;;;;;;12.67;51.35;103252.97;5007696;28;20018;-64
2022/03/23 09:53:13;;;;;;;47.53;23.17;;;;;;;12.80;51.51;103237.94;5005327;28;20087;-61
2022/03/23 09:55:39;;;;;;;38.85;20.75;;;;;;;12.85;51.17;103237.91;5008022;28;20052;-63
2022/03/23 09:58:06;;;;;;;38.08;21.42;;;;;;;13.14;50.95;103237.75;5007465;28;20030;-63
2022/03/23 10:00:37;;;;;;;40.88;22.55;;;;;;;13.11;50.20;103242.19;5008867;28;20087;-62
2022/03/23 10:03:11;;;;;;;42.40;24.05;;;;;;;13.01;50.46;103236.06;5007145;28;20030;-61
2022/03/23 10:05:55;;;;;;;42.85;21.65;;;;;;;13.06;51.17;103239.56;4998839;28;20014;-61
2022/03/23 10:08:42;;;;;;;34.25;22.60;;;;;;;13.31;49.98;103239.41;4998876;28;20386;-61
2022/03/23 10:11:44;;;;;;;40.70;23.55;;;;;;;13.38;48.63;103243.78;4988026;28;20030;-61
2022/03/23 10:14:54;;;;;;;39.55;23.40;;;;;;;13.25;48.09;103252.69;5000550;28;20087;-62
2022/03/23 10:17:37;;;;;;;49.92;23.50;;;;;;;13.32;48.34;103240.28;5006089;28;20082;-61
2022/03/23 10:20:03;;;;;;;39.47;22.63;;;;;;;13.53;48.08;103239.28;5008491;28;20545;-61
2022/03/23 10:22:29;;;;;;;32.47;21.50;;;;;;;13.71;48.15;103242.66;5004907;28;20600;-62
2022/03/23 10:24:55;;;;;;;37.97;20.60;;;;;;;13.97;48.42;103244.22;5006584;28;20464;-61
2022/03/23 10:27:23;;;;;;;36.10;23.83;;;;;;;14.00;49.24;103236.22;5006564;28;20052;-61
2022/03/23 10:29:52;;;;;;;37.95;23.65;;;;;;;14.03;49.29;103245.00;5006950;28;20129;-61
2022/03/23 10:32:20;;;;;;;41.83;25.00;;;;;;;14.24;48.95;103242.16;5006739;28;20239;-62
2022/03/23 10:34:54;;;;;;;39.22;23.10;;;;;;;14.18;48.94;103243.09;5006938;28;20029;-61
2022/03/23 10:37:23;;;;;;;41.35;24.42;;;;;;;14.39;48.23;103236.69;5006373;28;20036;-61
2022/03/23 10:39:49;;;;;;;36.03;21.85;;;;;;;14.66;47.74;103234.56;5005266;28;20493;-61
2022/03/23 10:42:18;;;;;;;37.40;23.40;;;;;;;14.67;45.06;103230.16;5006630;28;20041;-61
2022/03/23 10:44:47;;;;;;;40.92;24.20;;;;;;;14.75;45.30;103232.72;5008162;28;20063;-62
2022/03/23 10:47:25;;;;;;;36.60;22.48;;;;;;;15.05;43.86;103232.34;5020468;28;20514;-59
2022/03/23 10:49:51;;;;;;;38.30;21.88;;;;;;;15.31;44.10;103237.25;5019136;28;20042;-59
2022/03/23 10:52:17;;;;;;;33.25;21.98;;;;;;;15.52;44.10;103236.03;5026054;28;20029;-60
2022/03/23 10:54:56;;;;;;;35.10;23.02;;;;;;;15.72;42.08;103236.59;5023549;28;20126;-62
2022/03/23 10:57:52;;;;;;;35.83;20.63;;;;;;;16.00;42.73;103229.03;5027016;28;20383;-62
2022/03/23 11:00:29;;;;;;;38.10;22.58;;;;;;;16.06;42.90;103230.69;5025319;28;20025;-59
2022/03/23 11:02:54;;;;;;;39.58;24.08;;;;;;;16.03;42.39;103233.41;5026571;28;20103;-62
2022/03/23 11:05:38;;;;;;;38.55;22.35;;;;;;;16.33;42.03;103230.19;5022206;28;20476;-65
2022/03/23 11:08:22;;;;;;;36.58;23.75;;;;;;;16.54;42.21;103231.53;5026429;28;20045;-65
2022/03/23 11:16:27;;;;;;;32.78;21.92;;;;;;;16.78;42.08;103222.16;5024420;28;20103;-60
2022/03/23 11:18:56;;;;;;;40.35;23.13;;;;;;;17.07;40.82;103227.75;5026807;28;20464;-60
2022/03/23 11:21:21;;;;;;;;;;;;;;;17.08;40.48;103223.28;5020512;28;20762;-59
2022/03/23 11:23:46;;;;;;;35.17;23.53;;;;;;;17.33;41.19;103226.22;5026523;28;19913;-59
2022/03/23 11:26:12;;;;;;;34.30;22.88;;;;;;;17.47;40.29;103233.00;5024340;28;20291;-60
2022/03/23 11:28:42;;;;;;;36.75;22.88;;;;;;;17.55;40.62;103225.72;5027320;28;20169;-61
2022/03/23 11:31:09;;;;;;;37.88;24.38;;;;;;;17.66;39.49;103231.63;5024579;28;20033;-61